Celine — HBEF — position and weather

sailwx.info

Track history (hours):
 
Tides and Currents Weather Stations Pressure Air Temp Water Temp Dewpoint Dewpoint Depression Visibility Wind Speed Wind Dir Waves Ship Positions

Celine

Last reported at 2016-Jun-15 04:33 UTC. Time now 2016-Jun-24 22:22 UTC.
Position N 26°12' W 079°15'.
Warning: this ship's position is 9 days out of date.

Length 129 m; draft 7.9 m.

Type: Cargo ship. MMSI: 269057000.

Date/timePositionNaut miles runAvg speedWind from/ knotsBaromVisibWave heightAir tempDewpointWater temp
2016-Jun-15 04:33N 26°12' W 079°15'1312.7
2016-Jun-15 03:33N 26°03' W 079°26'1515.1
2016-Jun-15 02:32N 25°48' W 079°27'  
2016-Jun-11 21:22N 29°31' W 093°13'8 9.8
2016-Jun-11 20:33N 29°37' W 093°18'10 9.9
2016-Jun-11 19:33N 29°47' W 093°21'9 8.7
2016-Jun-11 18:33N 29°55' W 093°20'8 8.3
2016-Jun-11 17:33N 30°04' W 093°20'6 6.4
2016-Jun-11 16:33N 30°10' W 093°19'2 1.6
2016-Jun-11 15:31N 30°11' W 093°18'0 0.0
2016-Jun-11 14:28N 30°11' W 093°18'0 0.0
2016-Jun-11 13:31N 30°11' W 093°18'0 0.0
2016-Jun-11 12:31N 30°11' W 093°18'0 0.0
2016-Jun-11 11:31N 30°11' W 093°18'0 0.0
2016-Jun-11 10:31N 30°11' W 093°18'0 0.0
2016-Jun-11 09:31N 30°11' W 093°18'0 0.0
2016-Jun-11 08:31N 30°11' W 093°18'0 0.0
2016-Jun-11 07:31N 30°11' W 093°18'0 0.0
2016-Jun-11 06:31N 30°11' W 093°18'0 0.0
2016-Jun-11 05:31N 30°11' W 093°18'0 0.0
2016-Jun-11 04:31N 30°11' W 093°18'0 0.0
2016-Jun-11 03:28N 30°11' W 093°18'0 0.0
2016-Jun-11 02:31N 30°11' W 093°18'0 0.0
2016-Jun-11 01:28N 30°11' W 093°18'0 0.0
2016-Jun-11 00:31N 30°11' W 093°18'0 0.0
2016-Jun-10 23:31N 30°11' W 093°18'0 0.0
2016-Jun-10 22:31N 30°11' W 093°18'0 0.0
2016-Jun-10 21:31N 30°11' W 093°18'0 0.0
2016-Jun-10 20:31N 30°11' W 093°18'0 0.0
2016-Jun-10 19:31N 30°11' W 093°18'0 0.0
2016-Jun-10 18:31N 30°11' W 093°18'0 0.0
2016-Jun-10 17:33N 30°11' W 093°18'4 3.9
2016-Jun-10 16:33N 30°08' W 093°20'8 7.6
2016-Jun-10 15:33N 30°00' W 093°20'8 7.9
2016-Jun-10 14:33N 29°52' W 093°21'10 9.5
2016-Jun-10 13:33N 29°43' W 093°20'8 7.6
2016-Jun-10 12:33N 29°36' W 093°18'194 7.5
2016-Jun-09 10:33N 28°18' W 089°54'3210.5
2016-Jun-09 07:31N 28°43' W 089°32'6410.8
2016-Jun-09 01:33N 29°43' W 089°59'1111.1
2016-Jun-09 00:33N 29°53' W 089°54'1 0.7
2016-Jun-08 23:28N 29°54' W 089°54'0 0.0
2016-Jun-08 22:31N 29°54' W 089°54'0 0.0
2016-Jun-08 21:28N 29°54' W 089°54'0 0.0
2016-Jun-08 20:28N 29°54' W 089°54'0 0.0
2016-Jun-08 19:31N 29°54' W 089°54'0 0.0
2016-Jun-08 18:31N 29°54' W 089°54'0 0.0
2016-Jun-08 17:31N 29°54' W 089°54'0 0.0
2016-Jun-08 16:31N 29°54' W 089°54'0 0.0
2016-Jun-08 15:31N 29°54' W 089°54'0 0.0
2016-Jun-08 14:31N 29°54' W 089°54'0 0.0
2016-Jun-08 12:16N 29°54' W 089°54'0 0.0
2016-Jun-08 11:28N 29°54' W 089°54'0 0.0
2016-Jun-08 10:31N 29°54' W 089°54'0 0.0
2016-Jun-08 09:31N 29°54' W 089°54'0 0.0
2016-Jun-08 08:31N 29°54' W 089°54'0 0.0
2016-Jun-08 07:31N 29°54' W 089°54'0 0.0
2016-Jun-08 06:25N 29°54' W 089°54'0 0.0
2016-Jun-08 05:31N 29°54' W 089°54'  
Track history (hours):
 
Tides and Currents Weather Stations Pressure Air Temp Water Temp Dewpoint Dewpoint Depression Visibility Wind Speed Wind Dir Waves Ship Positions

Celine

Last reported at 2016-Jun-15 04:33 UTC. Time now 2016-Jun-24 22:22 UTC.
Position N 26°12' W 079°15'.
Warning: this ship's position is 9 days out of date.

Length 129 m; draft 7.9 m.

Type: Cargo ship. MMSI: 269057000.

Date/timePositionNaut miles runAvg speedWind from/ knotsBaromVisibWave heightAir tempDewpointWater temp
2016-Jun-15 04:33N 26°12' W 079°15'1312.7
2016-Jun-15 03:33N 26°03' W 079°26'1515.1
2016-Jun-15 02:32N 25°48' W 079°27'  
2016-Jun-11 21:22N 29°31' W 093°13'8 9.8
2016-Jun-11 20:33N 29°37' W 093°18'10 9.9
2016-Jun-11 19:33N 29°47' W 093°21'9 8.7
2016-Jun-11 18:33N 29°55' W 093°20'8 8.3
2016-Jun-11 17:33N 30°04' W 093°20'6 6.4
2016-Jun-11 16:33N 30°10' W 093°19'2 1.6
2016-Jun-11 15:31N 30°11' W 093°18'0 0.0
2016-Jun-11 14:28N 30°11' W 093°18'0 0.0
2016-Jun-11 13:31N 30°11' W 093°18'0 0.0
2016-Jun-11 12:31N 30°11' W 093°18'0 0.0
2016-Jun-11 11:31N 30°11' W 093°18'0 0.0
2016-Jun-11 10:31N 30°11' W 093°18'0 0.0
2016-Jun-11 09:31N 30°11' W 093°18'0 0.0
2016-Jun-11 08:31N 30°11' W 093°18'0 0.0
2016-Jun-11 07:31N 30°11' W 093°18'0 0.0
2016-Jun-11 06:31N 30°11' W 093°18'0 0.0
2016-Jun-11 05:31N 30°11' W 093°18'0 0.0
2016-Jun-11 04:31N 30°11' W 093°18'0 0.0
2016-Jun-11 03:28N 30°11' W 093°18'0 0.0
2016-Jun-11 02:31N 30°11' W 093°18'0 0.0
2016-Jun-11 01:28N 30°11' W 093°18'0 0.0
2016-Jun-11 00:31N 30°11' W 093°18'0 0.0
2016-Jun-10 23:31N 30°11' W 093°18'0 0.0
2016-Jun-10 22:31N 30°11' W 093°18'0 0.0
2016-Jun-10 21:31N 30°11' W 093°18'0 0.0
2016-Jun-10 20:31N 30°11' W 093°18'0 0.0
2016-Jun-10 19:31N 30°11' W 093°18'0 0.0
2016-Jun-10 18:31N 30°11' W 093°18'0 0.0
2016-Jun-10 17:33N 30°11' W 093°18'4 3.9
2016-Jun-10 16:33N 30°08' W 093°20'8 7.6
2016-Jun-10 15:33N 30°00' W 093°20'8 7.9
2016-Jun-10 14:33N 29°52' W 093°21'10 9.5
2016-Jun-10 13:33N 29°43' W 093°20'8 7.6
2016-Jun-10 12:33N 29°36' W 093°18'194 7.5
2016-Jun-09 10:33N 28°18' W 089°54'3210.5
2016-Jun-09 07:31N 28°43' W 089°32'6410.8
2016-Jun-09 01:33N 29°43' W 089°59'1111.1
2016-Jun-09 00:33N 29°53' W 089°54'1 0.7
2016-Jun-08 23:28N 29°54' W 089°54'0 0.0
2016-Jun-08 22:31N 29°54' W 089°54'0 0.0
2016-Jun-08 21:28N 29°54' W 089°54'0 0.0
2016-Jun-08 20:28N 29°54' W 089°54'0 0.0
2016-Jun-08 19:31N 29°54' W 089°54'0 0.0
2016-Jun-08 18:31N 29°54' W 089°54'0 0.0
2016-Jun-08 17:31N 29°54' W 089°54'0 0.0
2016-Jun-08 16:31N 29°54' W 089°54'0 0.0
2016-Jun-08 15:31N 29°54' W 089°54'0 0.0
2016-Jun-08 14:31N 29°54' W 089°54'0 0.0
2016-Jun-08 12:16N 29°54' W 089°54'0 0.0
2016-Jun-08 11:28N 29°54' W 089°54'0 0.0
2016-Jun-08 10:31N 29°54' W 089°54'0 0.0
2016-Jun-08 09:31N 29°54' W 089°54'0 0.0
2016-Jun-08 08:31N 29°54' W 089°54'0 0.0
2016-Jun-08 07:31N 29°54' W 089°54'0 0.0
2016-Jun-08 06:25N 29°54' W 089°54'0 0.0
2016-Jun-08 05:31N 29°54' W 089°54'  

Dump ship's entire track history